createdAt,value
2023-03-19T00:00:29.702Z,0.60
2023-03-19T00:02:56.354Z,0.50
2023-03-19T00:05:22.854Z,0.70
2023-03-19T00:07:49.328Z,0.55
2023-03-19T00:10:15.859Z,0.80
2023-03-19T00:12:42.266Z,0.60
2023-03-19T00:15:13.970Z,0.98
2023-03-19T00:17:41.551Z,0.80
2023-03-19T00:20:09.271Z,0.70
2023-03-19T00:22:35.901Z,0.82
2023-03-19T00:25:02.337Z,0.82
2023-03-19T00:27:28.716Z,0.93
2023-03-19T00:29:55.388Z,1.13
2023-03-19T00:32:21.799Z,0.68
2023-03-19T00:34:48.248Z,1.02
2023-03-19T00:37:16.388Z,0.95
2023-03-19T00:39:43.206Z,0.90
2023-03-19T00:42:09.883Z,0.90
2023-03-19T00:44:36.765Z,0.90
2023-03-19T00:47:03.298Z,1.10
2023-03-19T00:49:29.712Z,1.23
2023-03-19T00:51:56.091Z,0.95
2023-03-19T00:54:22.548Z,0.90
2023-03-19T00:56:48.989Z,1.00
2023-03-19T00:59:15.366Z,1.30
2023-03-19T01:01:42.017Z,1.10
2023-03-19T01:04:08.650Z,1.27
2023-03-19T01:06:35.097Z,0.90
2023-03-19T01:09:01.617Z,1.05
2023-03-19T01:11:28.249Z,1.60
2023-03-19T01:13:54.753Z,1.40
2023-03-19T01:16:21.199Z,1.52
2023-03-19T01:18:47.624Z,1.37
2023-03-19T01:21:14.590Z,1.00
2023-03-19T01:23:41.055Z,1.33
2023-03-19T01:26:08.333Z,1.20
2023-03-19T01:28:34.771Z,1.27
2023-03-19T01:31:05.821Z,1.10
2023-03-19T01:33:33.497Z,1.45
2023-03-19T01:36:03.951Z,1.55
2023-03-19T01:38:30.488Z,1.20
2023-03-19T01:40:57.298Z,1.63
2023-03-19T01:43:26.974Z,1.57
2023-03-19T01:46:00.667Z,1.95
2023-03-19T01:48:33.941Z,1.75
2023-03-19T01:51:01.303Z,1.73
2023-03-19T01:53:31.533Z,1.70
2023-03-19T01:56:06.925Z,1.57
2023-03-19T01:58:33.503Z,1.95
2023-03-19T02:01:00.036Z,1.88
2023-03-19T02:03:27.144Z,1.80
2023-03-19T02:05:55.668Z,1.73
2023-03-19T02:08:24.173Z,1.70
2023-03-19T02:10:53.921Z,1.55
2023-03-19T02:13:20.512Z,1.75
2023-03-19T02:15:47.401Z,1.92
2023-03-19T02:18:14.545Z,1.38
2023-03-19T02:20:54.862Z,1.50
2023-03-19T02:23:27.466Z,1.90
2023-03-19T02:26:02.525Z,1.90
2023-03-19T02:28:30.953Z,1.60
2023-03-19T02:30:57.428Z,1.73
2023-03-19T02:33:23.892Z,2.00
2023-03-19T02:35:52.897Z,1.35
2023-03-19T02:38:22.808Z,1.70
2023-03-19T02:40:52.351Z,2.13
2023-03-19T02:43:21.666Z,1.70
2023-03-19T02:45:48.364Z,2.17
2023-03-19T02:48:15.038Z,1.58
2023-03-19T02:50:41.480Z,1.90
2023-03-19T02:53:08.150Z,1.83
2023-03-19T02:55:34.633Z,1.90
2023-03-19T02:58:01.062Z,2.07
2023-03-19T03:00:28.196Z,1.95
2023-03-19T03:02:57.289Z,2.03
2023-03-19T03:05:24.042Z,2.00
2023-03-19T03:07:50.512Z,2.13
2023-03-19T03:10:17.331Z,2.27
2023-03-19T03:12:43.788Z,2.10
2023-03-19T03:15:10.437Z,1.80
2023-03-19T03:17:41.086Z,2.78
2023-03-19T03:20:09.365Z,3.03
2023-03-19T03:22:35.769Z,2.70
2023-03-19T03:25:02.167Z,2.95
2023-03-19T03:27:28.606Z,3.30
2023-03-19T03:29:55.428Z,2.83
2023-03-19T03:32:21.859Z,3.67
2023-03-19T03:34:48.334Z,3.67
2023-03-19T03:37:14.820Z,3.50
2023-03-19T03:39:42.502Z,3.50
2023-03-19T03:42:08.919Z,3.38
2023-03-19T03:44:36.120Z,4.20
2023-03-19T03:47:02.773Z,3.87
2023-03-19T03:49:29.163Z,3.58
2023-03-19T03:51:55.626Z,3.30
2023-03-19T03:54:22.514Z,4.18
2023-03-19T03:56:50.604Z,4.22
2023-03-19T03:59:17.143Z,4.03
2023-03-19T04:01:43.565Z,4.38
2023-03-19T04:04:09.951Z,4.72
2023-03-19T04:06:36.410Z,4.50
2023-03-19T04:09:03.381Z,4.43
2023-03-19T04:11:29.753Z,4.57
2023-03-19T04:13:57.587Z,4.32
2023-03-19T04:16:24.735Z,5.13
2023-03-19T04:18:51.338Z,5.30
2023-03-19T04:21:17.742Z,5.38
2023-03-19T04:23:44.203Z,4.97
2023-03-19T04:26:11.226Z,5.43
2023-03-19T04:28:37.635Z,5.60
2023-03-19T04:31:06.974Z,4.70
2023-03-19T04:33:33.813Z,5.38
2023-03-19T04:36:00.540Z,5.80
2023-03-19T04:38:27.662Z,5.55
2023-03-19T04:40:57.161Z,4.93
2023-03-19T04:43:24.642Z,5.78
2023-03-19T04:45:51.885Z,5.05
2023-03-19T04:48:18.549Z,5.30
2023-03-19T04:50:47.075Z,5.22
2023-03-19T04:53:13.518Z,6.40
2023-03-19T04:55:39.980Z,5.07
2023-03-19T04:58:06.985Z,5.55
2023-03-19T05:00:33.585Z,5.30
2023-03-19T05:03:00.794Z,5.72
2023-03-19T05:05:27.204Z,5.50
2023-03-19T05:07:53.751Z,5.22
2023-03-19T05:10:20.991Z,5.95
2023-03-19T05:12:47.363Z,6.03
2023-03-19T05:15:14.654Z,6.20
2023-03-19T05:17:41.327Z,5.82
2023-03-19T05:20:09.436Z,6.05
2023-03-19T05:22:35.816Z,6.45
2023-03-19T05:25:02.552Z,6.13
2023-03-19T05:27:28.964Z,6.55
2023-03-19T05:29:55.503Z,6.53
2023-03-19T05:32:22.150Z,6.22
2023-03-19T05:34:48.645Z,6.15
2023-03-19T05:37:15.045Z,6.77
2023-03-19T05:39:41.732Z,6.40
2023-03-19T05:42:08.309Z,6.28
2023-03-19T05:44:34.731Z,5.90
2023-03-19T05:47:01.110Z,6.18
2023-03-19T05:49:27.558Z,5.53
2023-03-19T05:51:53.973Z,5.65
2023-03-19T05:54:20.455Z,5.45
2023-03-19T05:56:46.847Z,5.82
2023-03-19T05:59:14.021Z,6.30
2023-03-19T06:01:40.873Z,5.23
2023-03-19T06:04:07.365Z,5.60
2023-03-19T06:06:33.859Z,5.93
2023-03-19T06:09:00.482Z,5.60
2023-03-19T06:11:27.127Z,5.57
2023-03-19T06:13:53.572Z,5.17
2023-03-19T06:16:20.017Z,4.70
2023-03-19T06:18:47.140Z,6.03
2023-03-19T06:21:13.709Z,6.50
2023-03-19T06:23:40.568Z,6.70
2023-03-19T06:26:07.108Z,6.23
2023-03-19T06:28:33.534Z,6.47
2023-03-19T06:30:59.992Z,6.95
2023-03-19T06:33:31.935Z,7.15
2023-03-19T06:35:58.947Z,6.82
2023-03-19T06:38:25.593Z,7.00
2023-03-19T06:40:51.965Z,6.22
2023-03-19T06:43:18.397Z,6.57
2023-03-19T06:45:44.824Z,6.75
2023-03-19T06:48:11.220Z,6.13
2023-03-19T06:50:37.610Z,6.77
2023-03-19T06:53:04.291Z,7.22
2023-03-19T06:55:31.066Z,7.25
2023-03-19T06:57:57.477Z,6.68
2023-03-19T07:00:24.519Z,7.70
2023-03-19T07:02:51.076Z,6.57
2023-03-19T07:05:17.632Z,7.40
2023-03-19T07:07:44.110Z,7.55
2023-03-19T07:10:11.056Z,8.55
2023-03-19T07:12:37.482Z,8.23
2023-03-19T07:15:04.804Z,7.83
2023-03-19T07:17:31.572Z,8.55
2023-03-19T07:19:58.073Z,10.05
2023-03-19T07:22:24.533Z,9.43
2023-03-19T07:24:51.804Z,9.48
2023-03-19T07:27:18.213Z,11.27
2023-03-19T07:29:44.648Z,10.48
2023-03-19T07:32:11.736Z,10.38
2023-03-19T07:34:38.142Z,12.10
2023-03-19T07:37:05.149Z,13.90
2023-03-19T07:39:31.727Z,12.50
2023-03-19T07:41:58.158Z,12.70
2023-03-19T07:44:24.614Z,13.95
2023-03-19T07:46:51.060Z,13.40
2023-03-19T07:49:17.512Z,12.35
2023-03-19T07:51:44.324Z,13.73
2023-03-19T07:54:10.701Z,12.20
2023-03-19T07:56:37.227Z,13.55
2023-03-19T07:59:03.609Z,14.23
2023-03-19T08:01:29.989Z,12.95
2023-03-19T08:03:56.460Z,12.40
2023-03-19T08:06:23.590Z,12.65
2023-03-19T08:08:50.467Z,11.73
2023-03-19T08:11:16.880Z,10.13
2023-03-19T08:13:43.476Z,10.77
2023-03-19T08:16:10.165Z,11.57
2023-03-19T08:18:36.701Z,11.35
2023-03-19T08:21:03.846Z,11.48
2023-03-19T08:23:30.319Z,12.57
2023-03-19T08:25:57.114Z,11.48
2023-03-19T08:28:24.367Z,11.43
2023-03-19T08:30:50.889Z,11.50
2023-03-19T08:33:17.414Z,10.52
2023-03-19T08:35:44.008Z,10.50
2023-03-19T08:38:11.059Z,9.93
2023-03-19T08:40:37.757Z,9.20
2023-03-19T08:43:04.214Z,10.30
2023-03-19T08:45:30.792Z,10.77
2023-03-19T08:47:58.336Z,9.20
2023-03-19T08:50:24.788Z,9.98
2023-03-19T08:52:51.202Z,10.00
2023-03-19T08:55:18.114Z,9.23
2023-03-19T08:57:44.579Z,10.05
2023-03-19T09:00:11.796Z,9.88
2023-03-19T09:02:38.706Z,8.85
2023-03-19T09:05:05.273Z,9.23
2023-03-19T09:07:31.671Z,8.25
2023-03-19T09:09:58.055Z,9.05
2023-03-19T09:12:24.491Z,9.73
2023-03-19T09:14:51.756Z,8.75
2023-03-19T09:17:18.262Z,9.10
2023-03-19T09:19:44.836Z,10.05
2023-03-19T09:22:11.284Z,9.75
2023-03-19T09:24:40.462Z,8.98
2023-03-19T09:27:07.187Z,8.90
2023-03-19T09:29:33.654Z,8.33
2023-03-19T09:32:00.744Z,8.57
2023-03-19T09:34:27.338Z,8.20
2023-03-19T09:36:53.727Z,8.20
2023-03-19T09:39:20.602Z,9.13
2023-03-19T09:41:52.239Z,8.60
2023-03-19T09:44:29.262Z,8.57
2023-03-19T09:47:23.906Z,8.93
2023-03-19T09:49:52.694Z,8.25
2023-03-19T09:52:34.590Z,8.85
2023-03-19T09:55:13.215Z,9.10
2023-03-19T09:57:39.694Z,9.55
2023-03-19T10:00:32.599Z,9.43
2023-03-19T10:03:17.836Z,9.18
2023-03-19T10:05:56.362Z,8.45
2023-03-19T10:08:44.423Z,9.47
2023-03-19T10:11:45.844Z,8.65
2023-03-19T10:14:28.089Z,8.90
2023-03-19T10:16:58.153Z,9.20
2023-03-19T10:19:41.718Z,8.43
2023-03-19T10:22:15.831Z,8.63
2023-03-19T10:24:46.300Z,7.95
2023-03-19T10:27:19.347Z,8.23
2023-03-19T10:29:46.448Z,8.57
2023-03-19T10:32:19.572Z,9.13
2023-03-19T10:34:48.995Z,8.83
2023-03-19T10:37:25.407Z,8.73
2023-03-19T10:39:55.614Z,8.90
2023-03-19T10:42:52.964Z,9.50
2023-03-19T10:45:33.284Z,9.95
2023-03-19T10:48:02.326Z,9.90
2023-03-19T10:50:38.950Z,8.55
2023-03-19T10:53:33.850Z,10.35
2023-03-19T10:56:03.858Z,10.63
2023-03-19T10:58:32.532Z,9.50
2023-03-19T11:01:06.429Z,9.70
2023-03-19T11:03:34.377Z,10.57
2023-03-19T11:06:18.461Z,10.23
2023-03-19T11:09:11.506Z,10.20
2023-03-19T11:11:50.794Z,9.90
2023-03-19T11:14:33.336Z,10.87
2023-03-19T11:17:27.529Z,10.00
2023-03-19T11:19:59.384Z,10.40
2023-03-19T11:22:33.542Z,11.68
2023-03-19T11:25:02.132Z,10.20
2023-03-19T11:27:31.585Z,10.03
2023-03-19T11:29:58.915Z,12.07
2023-03-19T11:32:48.384Z,12.45
2023-03-19T11:35:21.211Z,11.50
2023-03-19T11:37:54.409Z,10.43
2023-03-19T11:40:34.056Z,10.00
2023-03-19T11:43:17.166Z,8.90
2023-03-19T11:45:59.236Z,9.80
2023-03-19T11:48:40.886Z,9.25
2023-03-19T11:51:27.036Z,9.05
2023-03-19T11:54:03.136Z,9.20
2023-03-19T11:56:40.575Z,7.93
2023-03-19T11:59:13.128Z,7.78
2023-03-19T12:01:39.505Z,7.50
2023-03-19T12:04:27.545Z,9.23
2023-03-19T12:07:23.186Z,7.40
2023-03-19T12:10:02.164Z,7.03
2023-03-19T12:12:48.649Z,7.45
2023-03-19T12:15:27.529Z,9.15
2023-03-19T12:18:09.161Z,8.43
2023-03-19T12:21:07.867Z,8.03
2023-03-19T12:24:05.527Z,8.43
2023-03-19T12:26:48.604Z,7.50
2023-03-19T12:29:26.216Z,8.48
2023-03-19T12:31:55.651Z,8.40
2023-03-19T12:34:29.678Z,8.40
2023-03-19T12:37:05.789Z,8.43
2023-03-19T12:39:38.942Z,7.82
2023-03-19T12:42:09.590Z,7.43
2023-03-19T12:44:48.081Z,7.10
2023-03-19T12:47:30.859Z,7.87
2023-03-19T12:50:06.503Z,7.10
2023-03-19T12:52:58.149Z,7.30
2023-03-19T12:55:37.356Z,6.80
2023-03-19T12:58:22.309Z,7.13
2023-03-19T13:01:09.067Z,6.83
2023-03-19T13:04:17.983Z,6.97
2023-03-19T13:06:56.416Z,7.07
2023-03-19T13:09:39.048Z,6.80
2023-03-19T13:12:12.954Z,6.43
2023-03-19T13:14:55.133Z,6.77
2023-03-19T13:17:34.360Z,6.85
2023-03-19T13:20:08.108Z,6.85
2023-03-19T13:22:37.338Z,6.72
2023-03-19T13:25:06.674Z,7.10
2023-03-19T13:27:35.744Z,7.10
2023-03-19T13:30:07.851Z,6.78
2023-03-19T13:32:49.625Z,7.53
2023-03-19T13:35:19.015Z,6.90
2023-03-19T13:37:47.719Z,6.95
2023-03-19T13:40:39.348Z,6.83
2023-03-19T13:43:28.562Z,6.47
2023-03-19T13:46:29.146Z,6.57
2023-03-19T13:49:08.391Z,6.60
2023-03-19T13:51:35.531Z,6.40
2023-03-19T13:54:15.295Z,6.23
2023-03-19T13:57:01.281Z,7.50
2023-03-19T13:59:33.734Z,6.88
2023-03-19T14:02:01.625Z,6.97
2023-03-19T14:04:36.633Z,6.88
2023-03-19T14:07:15.126Z,6.00
2023-03-19T14:10:04.702Z,7.07
2023-03-19T14:12:38.645Z,9.40
2023-03-19T14:15:08.042Z,6.78
2023-03-19T14:17:42.838Z,6.13
2023-03-19T14:20:13.140Z,5.53
2023-03-19T14:23:00.740Z,6.00
2023-03-19T14:25:48.605Z,5.85
2023-03-19T14:28:19.337Z,6.80
2023-03-19T14:30:50.283Z,6.68
2023-03-19T14:33:29.425Z,6.50
2023-03-19T14:35:57.142Z,5.95
2023-03-19T14:38:37.437Z,5.18
2023-03-19T14:41:06.045Z,6.30
2023-03-19T14:44:43.328Z,6.65
2023-03-19T14:47:43.254Z,5.83
2023-03-19T14:50:27.266Z,4.90
2023-03-19T14:53:14.500Z,6.13
2023-03-19T14:55:42.147Z,5.88
2023-03-19T14:58:12.893Z,5.57
2023-03-19T15:00:47.171Z,5.37
2023-03-19T15:03:22.240Z,5.40
2023-03-19T15:05:50.705Z,5.38
2023-03-19T15:08:22.369Z,6.22
2023-03-19T15:11:10.514Z,5.53
2023-03-19T15:14:02.720Z,5.73
2023-03-19T15:16:52.857Z,5.90
2023-03-19T15:19:26.348Z,5.47
2023-03-19T15:22:04.357Z,5.43
2023-03-19T15:24:30.979Z,5.57
2023-03-19T15:26:57.359Z,6.73
2023-03-19T15:29:33.883Z,6.60
2023-03-19T15:32:05.095Z,7.35
2023-03-19T15:34:33.202Z,6.85
2023-03-19T15:37:15.109Z,7.18
2023-03-19T15:39:46.757Z,6.87
2023-03-19T15:42:16.266Z,6.85
2023-03-19T15:44:47.360Z,8.88
2023-03-19T15:47:19.482Z,7.82
2023-03-19T15:50:08.023Z,7.20
2023-03-19T15:52:38.039Z,5.93
2023-03-19T15:55:06.850Z,6.65
2023-03-19T15:57:36.293Z,7.30
2023-03-19T16:00:04.919Z,7.10
2023-03-19T16:02:33.875Z,6.80
2023-03-19T16:05:21.010Z,6.93
2023-03-19T16:07:58.286Z,5.68
2023-03-19T16:10:42.445Z,6.00
2023-03-19T16:13:27.138Z,7.13
2023-03-19T16:15:57.000Z,7.07
2023-03-19T16:18:25.440Z,6.43
2023-03-19T16:21:04.068Z,7.32
2023-03-19T16:23:36.891Z,7.80
2023-03-19T16:26:34.040Z,7.50
2023-03-19T16:29:05.103Z,6.57
2023-03-19T16:31:33.743Z,6.67
2023-03-19T16:34:00.574Z,6.82
2023-03-19T16:36:32.426Z,7.78
2023-03-19T16:39:31.086Z,7.53
2023-03-19T16:42:26.636Z,7.53
2023-03-19T16:44:53.392Z,7.23
2023-03-19T16:47:19.883Z,7.78
2023-03-19T16:49:47.925Z,7.88
2023-03-19T16:52:19.454Z,8.35
2023-03-19T16:54:46.521Z,8.60
2023-03-19T16:57:15.316Z,8.43
2023-03-19T16:59:42.195Z,9.95
2023-03-19T17:02:17.489Z,10.10
2023-03-19T17:04:44.631Z,10.60
2023-03-19T17:07:11.875Z,10.43
2023-03-19T17:09:38.564Z,9.93
2023-03-19T17:12:08.328Z,10.60
2023-03-19T17:14:35.571Z,10.05
2023-03-19T17:17:02.627Z,10.77
2023-03-19T17:19:35.631Z,11.10
2023-03-19T17:22:02.366Z,11.57
2023-03-19T17:24:31.610Z,11.45
2023-03-19T17:27:00.645Z,11.35
2023-03-19T17:29:27.707Z,11.55
2023-03-19T17:31:55.867Z,11.20
2023-03-19T17:34:26.214Z,10.97
2023-03-19T17:36:58.604Z,11.80
2023-03-19T17:39:26.794Z,10.68
2023-03-19T17:41:56.170Z,12.15
2023-03-19T17:44:22.995Z,9.57
2023-03-19T17:46:51.944Z,9.47
2023-03-19T17:49:30.244Z,10.20
2023-03-19T17:51:56.804Z,8.60
2023-03-19T17:54:25.691Z,8.45
2023-03-19T17:56:52.641Z,8.90
2023-03-19T17:59:19.159Z,10.53
2023-03-19T18:01:47.315Z,9.63
2023-03-19T18:04:16.212Z,10.55
2023-03-19T18:06:55.363Z,9.93
2023-03-19T18:09:24.696Z,11.02
2023-03-19T18:11:51.743Z,11.20
2023-03-19T18:14:18.159Z,11.38
2023-03-19T18:16:45.326Z,12.18
2023-03-19T18:19:20.481Z,10.88
2023-03-19T18:21:46.952Z,11.30
2023-03-19T18:24:13.395Z,11.10
2023-03-19T18:26:39.861Z,10.88
2023-03-19T18:29:06.325Z,11.93
2023-03-19T18:31:32.981Z,12.07
2023-03-19T18:34:03.052Z,11.05
2023-03-19T18:36:31.891Z,11.50
2023-03-19T18:38:58.733Z,10.45
2023-03-19T18:41:28.883Z,10.43
2023-03-19T18:43:55.487Z,11.02
2023-03-19T18:46:32.229Z,10.88
2023-03-19T18:49:01.544Z,11.53
2023-03-19T18:51:28.368Z,11.23
2023-03-19T18:53:56.005Z,10.52
2023-03-19T18:56:31.919Z,9.77
2023-03-19T18:58:59.335Z,11.07
2023-03-19T19:01:26.955Z,9.10
2023-03-19T19:03:54.063Z,10.38
2023-03-19T19:06:44.255Z,11.00
2023-03-19T19:09:12.747Z,9.70
2023-03-19T19:11:40.747Z,9.57
2023-03-19T19:14:15.920Z,9.33
2023-03-19T19:16:42.565Z,9.85
2023-03-19T19:19:22.482Z,9.88
2023-03-19T19:21:49.799Z,10.10
2023-03-19T19:24:17.605Z,10.30
2023-03-19T19:26:46.064Z,9.63
2023-03-19T19:29:23.620Z,9.50
2023-03-19T19:31:50.749Z,9.38
2023-03-19T19:34:17.621Z,9.65
2023-03-19T19:36:44.164Z,9.00
2023-03-19T19:39:11.020Z,9.47
2023-03-19T19:41:40.493Z,10.52
2023-03-19T19:44:07.345Z,9.57
2023-03-19T19:46:33.927Z,9.52
2023-03-19T19:49:00.648Z,9.82
2023-03-19T19:51:29.339Z,9.37
2023-03-19T19:53:55.823Z,9.20
2023-03-19T19:56:24.586Z,9.85
2023-03-19T19:58:53.560Z,9.32
2023-03-19T20:01:25.461Z,8.80
2023-03-19T20:03:52.568Z,8.70
2023-03-19T20:06:19.348Z,9.38
2023-03-19T20:08:49.174Z,9.70
2023-03-19T20:11:18.243Z,9.55
2023-03-19T20:13:51.359Z,9.27
2023-03-19T20:16:19.804Z,8.27
2023-03-19T20:18:47.512Z,8.23
2023-03-19T20:21:15.754Z,8.07
2023-03-19T20:23:43.877Z,8.18
2023-03-19T20:26:15.517Z,8.00
2023-03-19T20:28:43.142Z,7.47
2023-03-19T20:31:17.189Z,7.75
2023-03-19T20:33:43.627Z,7.30
2023-03-19T20:36:14.551Z,8.75
2023-03-19T20:38:41.917Z,8.18
2023-03-19T20:41:20.676Z,9.00
2023-03-19T20:43:47.994Z,7.55
2023-03-19T20:46:17.562Z,10.52
2023-03-19T20:48:44.060Z,10.05
2023-03-19T20:51:17.962Z,9.18
2023-03-19T20:53:44.371Z,8.73
2023-03-19T20:56:15.896Z,8.50
2023-03-19T20:58:42.314Z,8.63
2023-03-19T21:01:10.598Z,8.57
2023-03-19T21:03:38.117Z,9.75
2023-03-19T21:06:12.074Z,9.37
2023-03-19T21:08:48.009Z,8.95
2023-03-19T21:11:19.143Z,9.18
2023-03-19T21:13:47.890Z,7.93
2023-03-19T21:16:19.593Z,8.25
2023-03-19T21:18:47.169Z,7.30
2023-03-19T21:21:14.678Z,7.78
2023-03-19T21:24:01.343Z,6.35
2023-03-19T21:26:27.905Z,6.25
2023-03-19T21:29:00.565Z,6.00
2023-03-19T21:31:27.371Z,6.63
2023-03-19T21:33:55.909Z,5.78
2023-03-19T21:36:24.276Z,4.63
2023-03-19T21:38:52.352Z,5.60
2023-03-19T21:41:24.733Z,4.80
2023-03-19T21:43:57.658Z,5.13
2023-03-19T21:46:26.520Z,4.40
2023-03-19T21:48:54.539Z,4.25
2023-03-19T21:51:21.493Z,4.28
2023-03-19T21:53:48.855Z,4.55
2023-03-19T21:56:24.048Z,4.10
2023-03-19T21:58:52.690Z,3.90
2023-03-19T22:01:23.556Z,4.00
2023-03-19T22:03:54.782Z,3.97
2023-03-19T22:06:22.135Z,4.38
2023-03-19T22:08:48.768Z,4.07
2023-03-19T22:11:26.026Z,3.83
2023-03-19T22:13:52.722Z,4.22
2023-03-19T22:16:24.605Z,4.25
2023-03-19T22:18:52.342Z,3.78
2023-03-19T22:21:22.337Z,3.97
2023-03-19T22:23:49.473Z,3.58
2023-03-19T22:26:47.020Z,4.32
2023-03-19T22:29:20.915Z,4.50
2023-03-19T22:31:52.624Z,3.72
2023-03-19T22:34:21.481Z,2.70
2023-03-19T22:36:48.334Z,3.10
2023-03-19T22:39:14.758Z,3.20
2023-03-19T22:41:45.440Z,3.55
2023-03-19T22:44:32.195Z,3.47
2023-03-19T22:47:00.951Z,3.00
2023-03-19T22:49:28.280Z,3.33
2023-03-19T22:51:55.613Z,3.20
2023-03-19T22:54:22.015Z,3.92
2023-03-19T22:56:48.370Z,3.70
2023-03-19T22:59:14.734Z,3.50
2023-03-19T23:01:45.028Z,3.05
2023-03-19T23:04:25.412Z,3.50
2023-03-19T23:06:53.739Z,3.28
2023-03-19T23:09:22.749Z,3.60
2023-03-19T23:11:49.232Z,2.97
2023-03-19T23:14:28.492Z,2.78
2023-03-19T23:19:30.517Z,2.13
2023-03-19T23:21:58.746Z,2.47
2023-03-19T23:24:25.508Z,2.10
2023-03-19T23:26:54.532Z,2.30
2023-03-19T23:29:24.530Z,2.58
2023-03-19T23:31:51.261Z,1.88
2023-03-19T23:34:17.795Z,1.52
2023-03-19T23:36:44.925Z,2.30
2023-03-19T23:39:11.497Z,1.92
2023-03-19T23:41:46.365Z,2.63
2023-03-19T23:44:14.894Z,2.17
2023-03-19T23:46:41.541Z,2.22
2023-03-19T23:49:16.591Z,2.00
2023-03-19T23:51:43.033Z,1.95
2023-03-19T23:54:27.488Z,2.33
2023-03-19T23:56:54.992Z,2.00
2023-03-19T23:59:21.522Z,2.40
